sim
Sign-in with your pilot id or email,
or register
Callsign
Passwort

Schedule Details

Flight Number: DLH1808
Departure: Munich Airport (EDDM) at 05:30
Arrival: Barcelona El Prat Airport (LEBL) at 07:30
Route: Lufthansa Passenger Schedule. Enter filed route here before submitting Pirep.

Weather Information
Getting current METAR information for EDDM 230820Z 25007KT 220V280 9999 BKN011 BKN035 16/15 Q1010 TEMPO SHRA
Getting current METAR information for LEBL 230830Z 33007KT 9999 FEW020 21/16 Q1012 NOSIG

Schedule Frequency

Route Map